sensor_id;sensor_type;location;lat;lon;timestamp;pressure;altitude;pressure_sealevel;temperature;humidity
39954;BME280;25631;51.516;-0.470;2022-10-31T00:01:51;101458.81;;;11.74;45.30
39954;BME280;25631;51.516;-0.470;2022-10-31T00:04:28;101461.61;;;11.71;45.06
39954;BME280;25631;51.516;-0.470;2022-10-31T00:07:04;101469.10;;;11.92;45.08
39954;BME280;25631;51.516;-0.470;2022-10-31T00:09:40;101468.22;;;11.67;45.17
39954;BME280;25631;51.516;-0.470;2022-10-31T00:12:17;101469.75;;;11.67;45.35
39954;BME280;25631;51.516;-0.470;2022-10-31T00:14:53;101464.40;;;11.49;45.61
39954;BME280;25631;51.516;-0.470;2022-10-31T00:17:30;101466.94;;;11.40;45.74
39954;BME280;25631;51.516;-0.470;2022-10-31T00:20:07;101469.44;;;11.77;45.99
39954;BME280;25631;51.516;-0.470;2022-10-31T00:22:43;101468.02;;;11.72;46.14
39954;BME280;25631;51.516;-0.470;2022-10-31T00:25:20;101468.54;;;11.52;46.36
39954;BME280;25631;51.516;-0.470;2022-10-31T00:27:56;101465.72;;;11.61;46.44
39954;BME280;25631;51.516;-0.470;2022-10-31T00:30:33;101468.04;;;11.48;46.54
39954;BME280;25631;51.516;-0.470;2022-10-31T00:33:10;101467.97;;;11.34;46.56
39954;BME280;25631;51.516;-0.470;2022-10-31T00:35:49;101468.19;;;11.33;46.58
39954;BME280;25631;51.516;-0.470;2022-10-31T00:38:26;101465.58;;;11.53;46.62
39954;BME280;25631;51.516;-0.470;2022-10-31T00:41:02;101465.31;;;11.38;46.66
39954;BME280;25631;51.516;-0.470;2022-10-31T00:43:39;101465.01;;;11.62;46.74
39954;BME280;25631;51.516;-0.470;2022-10-31T00:46:15;101461.58;;;11.31;46.76
39954;BME280;25631;51.516;-0.470;2022-10-31T00:48:52;101460.48;;;11.35;46.84
39954;BME280;25631;51.516;-0.470;2022-10-31T00:51:28;101462.01;;;11.23;46.86
39954;BME280;25631;51.516;-0.470;2022-10-31T00:54:04;101466.03;;;11.31;46.94
39954;BME280;25631;51.516;-0.470;2022-10-31T00:56:41;101469.10;;;11.28;47.01
39954;BME280;25631;51.516;-0.470;2022-10-31T00:59:18;101466.20;;;11.24;47.04
39954;BME280;25631;51.516;-0.470;2022-10-31T01:01:54;101462.24;;;11.34;47.11
39954;BME280;25631;51.516;-0.470;2022-10-31T01:04:31;101458.82;;;11.22;47.10
39954;BME280;25631;51.516;-0.470;2022-10-31T01:07:07;101459.30;;;11.11;47.16
39954;BME280;25631;51.516;-0.470;2022-10-31T01:09:43;101461.42;;;11.17;47.15
39954;BME280;25631;51.516;-0.470;2022-10-31T01:12:20;101464.52;;;11.36;47.21
39954;BME280;25631;51.516;-0.470;2022-10-31T01:14:56;101463.73;;;11.21;47.28
39954;BME280;25631;51.516;-0.470;2022-10-31T01:17:33;101462.94;;;11.17;47.34
39954;BME280;25631;51.516;-0.470;2022-10-31T01:20:11;101463.55;;;11.27;47.38
39954;BME280;25631;51.516;-0.470;2022-10-31T01:22:48;101462.96;;;11.19;47.40
39954;BME280;25631;51.516;-0.470;2022-10-31T01:25:24;101461.83;;;11.25;47.50
39954;BME280;25631;51.516;-0.470;2022-10-31T01:28:01;101463.54;;;11.12;47.57
39954;BME280;25631;51.516;-0.470;2022-10-31T01:30:37;101460.03;;;10.96;47.54
39954;BME280;25631;51.516;-0.470;2022-10-31T01:33:14;101456.86;;;11.31;47.59
39954;BME280;25631;51.516;-0.470;2022-10-31T01:35:50;101453.09;;;11.26;47.62
39954;BME280;25631;51.516;-0.470;2022-10-31T01:38:27;101451.04;;;11.17;47.73
39954;BME280;25631;51.516;-0.470;2022-10-31T01:41:04;101455.96;;;11.36;47.76
39954;BME280;25631;51.516;-0.470;2022-10-31T01:43:45;101456.61;;;11.44;47.79
39954;BME280;25631;51.516;-0.470;2022-10-31T01:46:24;101455.96;;;11.33;47.77
39954;BME280;25631;51.516;-0.470;2022-10-31T01:49:05;101453.57;;;11.52;47.79
39954;BME280;25631;51.516;-0.470;2022-10-31T01:51:47;101450.31;;;11.69;47.77
39954;BME280;25631;51.516;-0.470;2022-10-31T01:54:30;101442.57;;;11.42;47.81
39954;BME280;25631;51.516;-0.470;2022-10-31T01:57:10;101443.41;;;11.74;47.86
39954;BME280;25631;51.516;-0.470;2022-10-31T01:59:54;101446.56;;;11.45;47.84
39954;BME280;25631;51.516;-0.470;2022-10-31T02:02:31;101441.29;;;11.49;47.85
39954;BME280;25631;51.516;-0.470;2022-10-31T02:05:11;101436.47;;;11.63;47.85
39954;BME280;25631;51.516;-0.470;2022-10-31T02:07:53;101436.46;;;11.77;47.84
39954;BME280;25631;51.516;-0.470;2022-10-31T02:10:32;101440.85;;;11.48;47.83
39954;BME280;25631;51.516;-0.470;2022-10-31T02:13:10;101442.99;;;11.52;47.84
39954;BME280;25631;51.516;-0.470;2022-10-31T02:15:51;101441.35;;;11.74;47.85
39954;BME280;25631;51.516;-0.470;2022-10-31T02:18:29;101439.29;;;11.78;47.84
39954;BME280;25631;51.516;-0.470;2022-10-31T02:21:12;101437.69;;;11.67;47.77
39954;BME280;25631;51.516;-0.470;2022-10-31T02:24:39;101435.84;;;11.89;47.76
39954;BME280;25631;51.516;-0.470;2022-10-31T02:27:32;101432.66;;;11.82;47.62
39954;BME280;25631;51.516;-0.470;2022-10-31T02:30:16;101434.64;;;11.84;47.45
39954;BME280;25631;51.516;-0.470;2022-10-31T02:33:06;101432.24;;;11.90;47.50
39954;BME280;25631;51.516;-0.470;2022-10-31T02:35:52;101430.90;;;11.76;47.50
39954;BME280;25631;51.516;-0.470;2022-10-31T02:38:42;101425.63;;;11.76;47.46
39954;BME280;25631;51.516;-0.470;2022-10-31T02:41:37;101425.87;;;11.74;47.40
39954;BME280;25631;51.516;-0.470;2022-10-31T02:44:20;101422.10;;;11.77;47.38
39954;BME280;25631;51.516;-0.470;2022-10-31T02:47:00;101418.06;;;11.92;47.39
39954;BME280;25631;51.516;-0.470;2022-10-31T02:49:42;101413.00;;;11.57;47.46
39954;BME280;25631;51.516;-0.470;2022-10-31T02:52:22;101405.57;;;11.63;47.48
39954;BME280;25631;51.516;-0.470;2022-10-31T02:55:10;101405.17;;;11.53;47.53
39954;BME280;25631;51.516;-0.470;2022-10-31T02:57:47;101406.73;;;11.63;47.44
39954;BME280;25631;51.516;-0.470;2022-10-31T03:00:24;101402.81;;;11.69;47.49
39954;BME280;25631;51.516;-0.470;2022-10-31T03:03:08;101400.55;;;11.50;47.57
39954;BME280;25631;51.516;-0.470;2022-10-31T03:05:55;101401.90;;;11.76;47.62
39954;BME280;25631;51.516;-0.470;2022-10-31T03:08:39;101400.74;;;11.54;47.64
39954;BME280;25631;51.516;-0.470;2022-10-31T03:11:22;101403.83;;;11.52;47.74
39954;BME280;25631;51.516;-0.470;2022-10-31T03:14:06;101407.37;;;11.81;47.78
39954;BME280;25631;51.516;-0.470;2022-10-31T03:16:47;101407.17;;;11.65;47.74
39954;BME280;25631;51.516;-0.470;2022-10-31T03:19:28;101409.73;;;11.70;47.58
39954;BME280;25631;51.516;-0.470;2022-10-31T03:22:10;101408.76;;;11.62;47.43
39954;BME280;25631;51.516;-0.470;2022-10-31T03:24:50;101410.39;;;11.86;47.39
39954;BME280;25631;51.516;-0.470;2022-10-31T03:27:31;101413.23;;;11.89;47.32
39954;BME280;25631;51.516;-0.470;2022-10-31T03:30:09;101404.59;;;11.84;47.25
39954;BME280;25631;51.516;-0.470;2022-10-31T03:32:51;101403.34;;;11.51;47.23
39954;BME280;25631;51.516;-0.470;2022-10-31T03:35:28;101397.75;;;11.69;47.16
39954;BME280;25631;51.516;-0.470;2022-10-31T03:38:05;101401.98;;;11.64;47.14
39954;BME280;25631;51.516;-0.470;2022-10-31T03:40:45;101402.18;;;11.92;47.12
39954;BME280;25631;51.516;-0.470;2022-10-31T03:43:28;101399.40;;;11.90;47.11
39954;BME280;25631;51.516;-0.470;2022-10-31T03:46:06;101397.61;;;11.90;47.09
39954;BME280;25631;51.516;-0.470;2022-10-31T03:48:42;101403.92;;;11.60;47.10
39954;BME280;25631;51.516;-0.470;2022-10-31T03:51:23;101403.22;;;11.77;47.11
39954;BME280;25631;51.516;-0.470;2022-10-31T03:54:06;101402.94;;;11.85;47.12
39954;BME280;25631;51.516;-0.470;2022-10-31T03:56:49;101399.08;;;11.62;47.14
39954;BME280;25631;51.516;-0.470;2022-10-31T03:59:28;101395.94;;;11.63;47.14
39954;BME280;25631;51.516;-0.470;2022-10-31T04:02:15;101395.77;;;11.71;47.26
39954;BME280;25631;51.516;-0.470;2022-10-31T04:04:53;101400.72;;;11.78;47.32
39954;BME280;25631;51.516;-0.470;2022-10-31T04:07:33;101403.77;;;11.43;47.42
39954;BME280;25631;51.516;-0.470;2022-10-31T04:10:13;101404.45;;;11.25;47.43
39954;BME280;25631;51.516;-0.470;2022-10-31T04:12:53;101401.83;;;11.78;47.43
39954;BME280;25631;51.516;-0.470;2022-10-31T04:15:31;101399.49;;;11.71;47.41
39954;BME280;25631;51.516;-0.470;2022-10-31T04:18:08;101397.40;;;11.58;47.42
39954;BME280;25631;51.516;-0.470;2022-10-31T04:20:47;101388.66;;;11.90;47.37
39954;BME280;25631;51.516;-0.470;2022-10-31T04:23:26;101382.24;;;11.67;47.34
39954;BME280;25631;51.516;-0.470;2022-10-31T04:26:03;101377.13;;;11.44;47.33
39954;BME280;25631;51.516;-0.470;2022-10-31T04:28:39;101375.57;;;11.64;47.33
39954;BME280;25631;51.516;-0.470;2022-10-31T04:31:16;101370.82;;;11.39;47.34
39954;BME280;25631;51.516;-0.470;2022-10-31T04:33:53;101371.23;;;11.49;47.30
39954;BME280;25631;51.516;-0.470;2022-10-31T04:36:29;101375.42;;;11.59;47.29
39954;BME280;25631;51.516;-0.470;2022-10-31T04:39:06;101375.67;;;11.60;47.28
39954;BME280;25631;51.516;-0.470;2022-10-31T04:41:42;101372.48;;;11.67;47.27
39954;BME280;25631;51.516;-0.470;2022-10-31T04:44:18;101372.10;;;11.65;47.25
39954;BME280;25631;51.516;-0.470;2022-10-31T04:46:55;101370.84;;;11.74;47.31
39954;BME280;25631;51.516;-0.470;2022-10-31T04:49:31;101370.21;;;11.73;47.37
39954;BME280;25631;51.516;-0.470;2022-10-31T04:52:08;101362.42;;;11.77;47.31
39954;BME280;25631;51.516;-0.470;2022-10-31T04:54:44;101361.78;;;11.69;47.32
39954;BME280;25631;51.516;-0.470;2022-10-31T04:57:21;101364.38;;;11.71;47.31
39954;BME280;25631;51.516;-0.470;2022-10-31T04:59:57;101364.23;;;11.59;47.27
39954;BME280;25631;51.516;-0.470;2022-10-31T05:02:33;101365.28;;;11.31;47.26
39954;BME280;25631;51.516;-0.470;2022-10-31T05:05:10;101367.25;;;11.40;47.30
39954;BME280;25631;51.516;-0.470;2022-10-31T05:07:47;101369.08;;;11.62;47.27
39954;BME280;25631;51.516;-0.470;2022-10-31T05:10:26;101367.42;;;11.52;47.24
39954;BME280;25631;51.516;-0.470;2022-10-31T05:13:03;101366.31;;;11.84;47.18
39954;BME280;25631;51.516;-0.470;2022-10-31T05:15:40;101366.65;;;11.52;47.10
39954;BME280;25631;51.516;-0.470;2022-10-31T05:18:17;101366.07;;;11.60;47.02
39954;BME280;25631;51.516;-0.470;2022-10-31T05:20:53;101364.16;;;11.38;47.13
39954;BME280;25631;51.516;-0.470;2022-10-31T05:23:29;101363.41;;;11.49;47.24
39954;BME280;25631;51.516;-0.470;2022-10-31T05:26:06;101359.32;;;11.45;47.30
39954;BME280;25631;51.516;-0.470;2022-10-31T05:28:42;101359.18;;;11.48;47.19
39954;BME280;25631;51.516;-0.470;2022-10-31T05:31:18;101356.95;;;11.32;47.08
39954;BME280;25631;51.516;-0.470;2022-10-31T05:33:55;101352.20;;;11.56;47.05
39954;BME280;25631;51.516;-0.470;2022-10-31T05:36:31;101355.26;;;11.28;47.05
39954;BME280;25631;51.516;-0.470;2022-10-31T05:39:08;101349.71;;;11.31;46.99
39954;BME280;25631;51.516;-0.470;2022-10-31T05:41:44;101352.45;;;11.72;46.95
39954;BME280;25631;51.516;-0.470;2022-10-31T05:44:21;101349.59;;;11.60;46.94
39954;BME280;25631;51.516;-0.470;2022-10-31T05:46:57;101341.80;;;11.57;46.91
39954;BME280;25631;51.516;-0.470;2022-10-31T05:49:34;101345.86;;;11.33;46.83
39954;BME280;25631;51.516;-0.470;2022-10-31T05:52:10;101340.13;;;11.43;46.73
39954;BME280;25631;51.516;-0.470;2022-10-31T05:54:47;101334.31;;;11.69;46.69
39954;BME280;25631;51.516;-0.470;2022-10-31T05:57:23;101333.35;;;11.77;46.64
39954;BME280;25631;51.516;-0.470;2022-10-31T06:00:00;101330.56;;;11.52;46.59
39954;BME280;25631;51.516;-0.470;2022-10-31T06:02:36;101330.89;;;11.36;46.58
39954;BME280;25631;51.516;-0.470;2022-10-31T06:05:13;101328.43;;;11.42;46.58
39954;BME280;25631;51.516;-0.470;2022-10-31T06:07:49;101322.78;;;11.50;46.59
39954;BME280;25631;51.516;-0.470;2022-10-31T06:10:27;101320.12;;;11.31;46.56
39954;BME280;25631;51.516;-0.470;2022-10-31T06:13:03;101319.79;;;11.41;46.51
39954;BME280;25631;51.516;-0.470;2022-10-31T06:15:41;101318.77;;;11.17;46.54
39954;BME280;25631;51.516;-0.470;2022-10-31T06:18:18;101314.98;;;11.15;46.47
39954;BME280;25631;51.516;-0.470;2022-10-31T06:20:54;101316.66;;;11.41;46.63
39954;BME280;25631;51.516;-0.470;2022-10-31T06:23:30;101317.94;;;11.28;46.71
39954;BME280;25631;51.516;-0.470;2022-10-31T06:26:07;101320.54;;;11.27;46.78
39954;BME280;25631;51.516;-0.470;2022-10-31T06:28:43;101318.63;;;11.31;46.84
39954;BME280;25631;51.516;-0.470;2022-10-31T06:31:20;101316.50;;;11.25;46.92
39954;BME280;25631;51.516;-0.470;2022-10-31T06:33:56;101315.69;;;11.22;46.99
39954;BME280;25631;51.516;-0.470;2022-10-31T06:36:32;101310.54;;;11.12;47.09
39954;BME280;25631;51.516;-0.470;2022-10-31T06:39:09;101309.69;;;11.21;47.16
39954;BME280;25631;51.516;-0.470;2022-10-31T06:41:47;101309.46;;;11.09;47.16
39954;BME280;25631;51.516;-0.470;2022-10-31T06:44:24;101311.03;;;11.06;47.14
39954;BME280;25631;51.516;-0.470;2022-10-31T06:47:00;101310.82;;;11.15;47.10
39954;BME280;25631;51.516;-0.470;2022-10-31T06:49:37;101306.06;;;11.27;47.08
39954;BME280;25631;51.516;-0.470;2022-10-31T06:52:13;101304.53;;;11.16;47.10
39954;BME280;25631;51.516;-0.470;2022-10-31T06:54:50;101305.16;;;11.02;47.12
39954;BME280;25631;51.516;-0.470;2022-10-31T06:57:26;101306.63;;;11.12;47.08
39954;BME280;25631;51.516;-0.470;2022-10-31T07:00:03;101304.01;;;11.13;47.14
39954;BME280;25631;51.516;-0.470;2022-10-31T07:02:40;101304.76;;;11.12;47.21
39954;BME280;25631;51.516;-0.470;2022-10-31T07:05:16;101303.85;;;11.13;47.22
39954;BME280;25631;51.516;-0.470;2022-10-31T07:07:53;101306.06;;;11.24;47.23
39954;BME280;25631;51.516;-0.470;2022-10-31T07:10:31;101301.72;;;11.16;47.25
39954;BME280;25631;51.516;-0.470;2022-10-31T07:13:11;101299.89;;;11.08;47.29
39954;BME280;25631;51.516;-0.470;2022-10-31T07:15:47;101303.03;;;11.18;47.32
39954;BME280;25631;51.516;-0.470;2022-10-31T07:18:24;101302.42;;;10.96;47.32
39954;BME280;25631;51.516;-0.470;2022-10-31T07:21:00;101302.46;;;11.18;47.31
39954;BME280;25631;51.516;-0.470;2022-10-31T07:23:37;101297.47;;;11.11;47.38
39954;BME280;25631;51.516;-0.470;2022-10-31T07:26:13;101293.17;;;11.13;47.45
39954;BME280;25631;51.516;-0.470;2022-10-31T07:28:49;101290.34;;;11.06;47.52
39954;BME280;25631;51.516;-0.470;2022-10-31T07:31:26;101293.55;;;11.22;47.56
39954;BME280;25631;51.516;-0.470;2022-10-31T07:34:02;101296.66;;;11.23;47.63
39954;BME280;25631;51.516;-0.470;2022-10-31T07:36:39;101297.91;;;11.26;47.57
39954;BME280;25631;51.516;-0.470;2022-10-31T07:39:15;101290.95;;;11.22;47.65
39954;BME280;25631;51.516;-0.470;2022-10-31T07:41:51;101289.02;;;11.40;47.70
39954;BME280;25631;51.516;-0.470;2022-10-31T07:44:28;101287.31;;;11.21;47.83
39954;BME280;25631;51.516;-0.470;2022-10-31T07:47:04;101283.41;;;11.15;48.07
39954;BME280;25631;51.516;-0.470;2022-10-31T07:49:40;101282.10;;;11.33;48.09
39954;BME280;25631;51.516;-0.470;2022-10-31T07:52:17;101277.32;;;11.30;48.30
39954;BME280;25631;51.516;-0.470;2022-10-31T07:54:53;101277.74;;;11.41;48.45
39954;BME280;25631;51.516;-0.470;2022-10-31T07:57:29;101278.68;;;11.34;48.54
39954;BME280;25631;51.516;-0.470;2022-10-31T08:00:08;101282.42;;;11.37;48.53
39954;BME280;25631;51.516;-0.470;2022-10-31T08:02:45;101284.47;;;11.39;48.66
39954;BME280;25631;51.516;-0.470;2022-10-31T08:05:22;101281.25;;;11.42;48.76
39954;BME280;25631;51.516;-0.470;2022-10-31T08:07:58;101284.32;;;11.46;48.86
39954;BME280;25631;51.516;-0.470;2022-10-31T08:10:35;101281.52;;;11.77;48.87
39954;BME280;25631;51.516;-0.470;2022-10-31T08:13:13;101281.88;;;11.63;49.11
39954;BME280;25631;51.516;-0.470;2022-10-31T08:15:49;101279.72;;;11.49;49.11
39954;BME280;25631;51.516;-0.470;2022-10-31T08:18:26;101277.80;;;11.51;49.19
39954;BME280;25631;51.516;-0.470;2022-10-31T08:21:02;101276.28;;;11.44;49.26
39954;BME280;25631;51.516;-0.470;2022-10-31T08:23:39;101273.32;;;11.66;49.38
39954;BME280;25631;51.516;-0.470;2022-10-31T08:26:15;101282.29;;;11.77;49.48
39954;BME280;25631;51.516;-0.470;2022-10-31T08:28:51;101285.07;;;11.47;49.61
39954;BME280;25631;51.516;-0.470;2022-10-31T08:31:29;101283.79;;;11.73;49.76
39954;BME280;25631;51.516;-0.470;2022-10-31T08:34:05;101278.92;;;11.61;49.72
39954;BME280;25631;51.516;-0.470;2022-10-31T08:36:42;101273.40;;;11.51;49.67
39954;BME280;25631;51.516;-0.470;2022-10-31T08:39:18;101271.95;;;11.90;49.67
39954;BME280;25631;51.516;-0.470;2022-10-31T08:41:54;101274.67;;;11.86;49.68
39954;BME280;25631;51.516;-0.470;2022-10-31T08:44:31;101275.69;;;11.61;49.70
39954;BME280;25631;51.516;-0.470;2022-10-31T08:47:07;101273.78;;;12.00;49.61
39954;BME280;25631;51.516;-0.470;2022-10-31T08:49:44;101273.31;;;11.96;49.58
39954;BME280;25631;51.516;-0.470;2022-10-31T08:52:23;101271.76;;;11.89;49.47
39954;BME280;25631;51.516;-0.470;2022-10-31T08:54:59;101268.03;;;11.96;49.49
39954;BME280;25631;51.516;-0.470;2022-10-31T08:57:35;101266.14;;;11.94;49.36
39954;BME280;25631;51.516;-0.470;2022-10-31T09:00:12;101258.44;;;12.03;49.31
39954;BME280;25631;51.516;-0.470;2022-10-31T09:02:55;101255.45;;;12.02;49.27
39954;BME280;25631;51.516;-0.470;2022-10-31T09:05:32;101255.46;;;12.24;49.26
39954;BME280;25631;51.516;-0.470;2022-10-31T09:08:09;101257.25;;;12.26;49.18
39954;BME280;25631;51.516;-0.470;2022-10-31T09:10:46;101251.75;;;12.33;49.07
39954;BME280;25631;51.516;-0.470;2022-10-31T09:13:23;101249.69;;;12.16;48.97
39954;BME280;25631;51.516;-0.470;2022-10-31T09:15:59;101248.39;;;12.25;49.00
39954;BME280;25631;51.516;-0.470;2022-10-31T09:18:36;101238.76;;;12.20;49.03
39954;BME280;25631;51.516;-0.470;2022-10-31T09:21:12;101233.17;;;12.34;48.97
39954;BME280;25631;51.516;-0.470;2022-10-31T09:23:48;101229.52;;;12.52;48.97
39954;BME280;25631;51.516;-0.470;2022-10-31T09:26:25;101224.53;;;12.19;48.97
39954;BME280;25631;51.516;-0.470;2022-10-31T09:29:01;101219.26;;;12.26;49.00
39954;BME280;25631;51.516;-0.470;2022-10-31T09:31:37;101216.06;;;12.36;48.99
39954;BME280;25631;51.516;-0.470;2022-10-31T09:34:14;101212.36;;;12.25;48.96
39954;BME280;25631;51.516;-0.470;2022-10-31T09:36:50;101213.09;;;12.24;49.03
39954;BME280;25631;51.516;-0.470;2022-10-31T09:39:29;101211.12;;;12.26;49.07
39954;BME280;25631;51.516;-0.470;2022-10-31T09:42:18;101209.26;;;12.38;49.07
39954;BME280;25631;51.516;-0.470;2022-10-31T09:45:06;101200.63;;;12.57;48.93
39954;BME280;25631;51.516;-0.470;2022-10-31T09:47:58;101197.50;;;12.58;48.95
39954;BME280;25631;51.516;-0.470;2022-10-31T09:50:42;101194.83;;;12.48;49.03
39954;BME280;25631;51.516;-0.470;2022-10-31T09:53:23;101188.95;;;12.18;49.20
39954;BME280;25631;51.516;-0.470;2022-10-31T09:56:06;101188.17;;;12.57;49.17
39954;BME280;25631;51.516;-0.470;2022-10-31T09:58:45;101190.46;;;12.57;49.13
39954;BME280;25631;51.516;-0.470;2022-10-31T10:01:30;101188.54;;;12.60;49.12
39954;BME280;25631;51.516;-0.470;2022-10-31T10:04:22;101185.66;;;12.64;48.95
39954;BME280;25631;51.516;-0.470;2022-10-31T10:07:11;101185.70;;;12.63;48.73
39954;BME280;25631;51.516;-0.470;2022-10-31T10:09:50;101180.60;;;12.60;48.57
39954;BME280;25631;51.516;-0.470;2022-10-31T10:12:38;101175.23;;;13.01;48.65
39954;BME280;25631;51.516;-0.470;2022-10-31T10:15:31;101176.02;;;12.54;48.78
39954;BME280;25631;51.516;-0.470;2022-10-31T10:18:19;101180.20;;;12.83;48.69
39954;BME280;25631;51.516;-0.470;2022-10-31T10:21:09;101179.22;;;12.71;48.31
39954;BME280;25631;51.516;-0.470;2022-10-31T10:23:57;101177.08;;;13.17;47.99
39954;BME280;25631;51.516;-0.470;2022-10-31T10:26:40;101180.03;;;13.37;47.96
39954;BME280;25631;51.516;-0.470;2022-10-31T10:29:31;101180.77;;;12.99;47.57
39954;BME280;25631;51.516;-0.470;2022-10-31T10:32:13;101181.77;;;12.94;47.27
39954;BME280;25631;51.516;-0.470;2022-10-31T10:34:59;101171.15;;;13.12;46.89
39954;BME280;25631;51.516;-0.470;2022-10-31T10:37:40;101169.98;;;13.24;46.96
39954;BME280;25631;51.516;-0.470;2022-10-31T10:40:20;101168.55;;;13.28;46.80
39954;BME280;25631;51.516;-0.470;2022-10-31T10:43:19;101161.07;;;13.39;46.69
39954;BME280;25631;51.516;-0.470;2022-10-31T10:46:05;101156.29;;;13.44;46.69
39954;BME280;25631;51.516;-0.470;2022-10-31T10:48:51;101142.96;;;13.42;46.37
39954;BME280;25631;51.516;-0.470;2022-10-31T10:51:36;101141.72;;;13.67;46.13
39954;BME280;25631;51.516;-0.470;2022-10-31T10:54:30;101144.93;;;13.77;46.18
39954;BME280;25631;51.516;-0.470;2022-10-31T10:57:49;101137.73;;;13.76;46.17
39954;BME280;25631;51.516;-0.470;2022-10-31T11:00:31;101123.76;;;14.00;45.59
39954;BME280;25631;51.516;-0.470;2022-10-31T11:03:09;101130.92;;;13.95;45.09
39954;BME280;25631;51.516;-0.470;2022-10-31T11:05:48;101134.85;;;13.73;44.71
39954;BME280;25631;51.516;-0.470;2022-10-31T11:08:27;101128.84;;;13.61;44.31
39954;BME280;25631;51.516;-0.470;2022-10-31T11:11:10;101118.69;;;13.86;44.53
39954;BME280;25631;51.516;-0.470;2022-10-31T11:13:54;101111.85;;;13.76;44.81
39954;BME280;25631;51.516;-0.470;2022-10-31T11:16:35;101108.90;;;14.00;44.84
39954;BME280;25631;51.516;-0.470;2022-10-31T11:19:17;101107.46;;;14.15;44.70
39954;BME280;25631;51.516;-0.470;2022-10-31T11:22:06;101101.05;;;14.22;44.37
39954;BME280;25631;51.516;-0.470;2022-10-31T11:24:43;101103.02;;;13.83;44.50
39954;BME280;25631;51.516;-0.470;2022-10-31T11:27:21;101102.53;;;14.23;44.11
39954;BME280;25631;51.516;-0.470;2022-10-31T11:30:05;101107.38;;;14.23;44.09
39954;BME280;25631;51.516;-0.470;2022-10-31T11:32:47;101102.11;;;14.23;44.15
39954;BME280;25631;51.516;-0.470;2022-10-31T11:35:25;101093.87;;;14.18;43.94
39954;BME280;25631;51.516;-0.470;2022-10-31T11:38:05;101091.39;;;14.46;43.58
39954;BME280;25631;51.516;-0.470;2022-10-31T11:40:52;101088.03;;;14.33;43.48
39954;BME280;25631;51.516;-0.470;2022-10-31T11:43:29;101081.51;;;14.32;43.49
39954;BME280;25631;51.516;-0.470;2022-10-31T11:46:10;101067.48;;;14.49;43.41
39954;BME280;25631;51.516;-0.470;2022-10-31T11:48:48;101057.59;;;14.53;43.68
39954;BME280;25631;51.516;-0.470;2022-10-31T11:51:27;101051.51;;;14.62;42.87
39954;BME280;25631;51.516;-0.470;2022-10-31T11:54:05;101049.43;;;14.87;42.92
39954;BME280;25631;51.516;-0.470;2022-10-31T11:56:42;101047.87;;;14.54;42.69
39954;BME280;25631;51.516;-0.470;2022-10-31T11:59:25;101044.60;;;14.93;42.46
39954;BME280;25631;51.516;-0.470;2022-10-31T12:02:02;101033.40;;;14.65;42.32
39954;BME280;25631;51.516;-0.470;2022-10-31T12:04:41;101028.74;;;14.67;42.58
39954;BME280;25631;51.516;-0.470;2022-10-31T12:07:19;101019.50;;;14.83;41.72
39954;BME280;25631;51.516;-0.470;2022-10-31T12:09:56;101015.56;;;14.96;41.54
39954;BME280;25631;51.516;-0.470;2022-10-31T12:12:43;101003.10;;;15.06;41.07
39954;BME280;25631;51.516;-0.470;2022-10-31T12:15:30;101003.66;;;15.10;41.19
39954;BME280;25631;51.516;-0.470;2022-10-31T12:18:24;100981.92;;;15.16;40.90
39954;BME280;25631;51.516;-0.470;2022-10-31T12:21:15;100979.79;;;15.26;41.19
39954;BME280;25631;51.516;-0.470;2022-10-31T12:24:13;100976.30;;;15.13;41.24
39954;BME280;25631;51.516;-0.470;2022-10-31T12:27:03;100973.51;;;15.59;40.56
39954;BME280;25631;51.516;-0.470;2022-10-31T12:29:54;100971.13;;;15.46;40.39
39954;BME280;25631;51.516;-0.470;2022-10-31T12:32:42;100961.64;;;15.30;39.93
39954;BME280;25631;51.516;-0.470;2022-10-31T12:35:40;100959.73;;;15.42;40.31
39954;BME280;25631;51.516;-0.470;2022-10-31T12:38:29;100948.39;;;15.59;40.46
39954;BME280;25631;51.516;-0.470;2022-10-31T12:41:19;100949.31;;;15.66;40.14
39954;BME280;25631;51.516;-0.470;2022-10-31T12:44:05;100944.87;;;15.54;40.02
39954;BME280;25631;51.516;-0.470;2022-10-31T12:46:58;100930.50;;;15.58;40.08
39954;BME280;25631;51.516;-0.470;2022-10-31T12:49:45;100925.70;;;15.77;40.28
39954;BME280;25631;51.516;-0.470;2022-10-31T12:52:35;100925.73;;;15.76;39.97
39954;BME280;25631;51.516;-0.470;2022-10-31T12:55:28;100920.03;;;15.93;39.64
39954;BME280;25631;51.516;-0.470;2022-10-31T12:58:13;100916.37;;;15.67;39.41
39954;BME280;25631;51.516;-0.470;2022-10-31T13:01:01;100912.40;;;15.60;38.91
39954;BME280;25631;51.516;-0.470;2022-10-31T13:03:46;100905.38;;;15.55;39.26
39954;BME280;25631;51.516;-0.470;2022-10-31T13:06:30;100898.97;;;16.00;39.41
39954;BME280;25631;51.516;-0.470;2022-10-31T13:09:13;100889.32;;;15.65;39.37
39954;BME280;25631;51.516;-0.470;2022-10-31T13:11:55;100879.03;;;15.63;39.47
39954;BME280;25631;51.516;-0.470;2022-10-31T13:14:36;100862.75;;;15.73;39.39
39954;BME280;25631;51.516;-0.470;2022-10-31T13:17:21;100853.74;;;15.66;38.83
39954;BME280;25631;51.516;-0.470;2022-10-31T13:20:12;100846.30;;;16.07;38.95
39954;BME280;25631;51.516;-0.470;2022-10-31T13:22:53;100832.81;;;15.66;39.22
39954;BME280;25631;51.516;-0.470;2022-10-31T13:25:38;100824.38;;;15.62;38.84
39954;BME280;25631;51.516;-0.470;2022-10-31T13:28:24;100813.67;;;15.54;38.89
39954;BME280;25631;51.516;-0.470;2022-10-31T13:31:03;100808.85;;;15.77;38.90
39954;BME280;25631;51.516;-0.470;2022-10-31T13:33:44;100807.43;;;15.84;39.08
39954;BME280;25631;51.516;-0.470;2022-10-31T13:36:29;100802.16;;;15.47;38.98
39954;BME280;25631;51.516;-0.470;2022-10-31T13:39:19;100796.08;;;15.48;39.08
39954;BME280;25631;51.516;-0.470;2022-10-31T13:42:03;100789.56;;;15.68;39.20
39954;BME280;25631;51.516;-0.470;2022-10-31T13:44:44;100783.13;;;15.38;39.09
39954;BME280;25631;51.516;-0.470;2022-10-31T13:47:23;100777.35;;;15.59;39.32